This is the latest recevied weather packets stored in our database for station/object NK7I. If no packets are shown the sender has not sent any weather packets the latest 10 day(s).
| Time | Temp. | Humidity | Pressure | Rain* | Wind** | Luminosity | Snow |
|---|---|---|---|---|---|---|---|
| 1778102183 | 22.22° C | 40% | 1009.6 hPa | 0 mm | - | 459 W/m² | - |
| 1778101882 | 22.22° C | 40% | 1009.5 hPa | 0 mm | - | 445 W/m² | - |
| 1778101582 | 22.22° C | 41% | 1009.6 hPa | 0 mm | - | 485 W/m² | - |
| 1778101282 | 22.22° C | 41% | 1009.6 hPa | 0 mm | - | 529 W/m² | - |
| 1778100982 | 22.22° C | 43% | 1009.6 hPa | 0 mm | - | 513 W/m² | - |
| 1778092282 | 18.33° C | 47% | 1012.1 hPa | 0 mm | - | 1227 W/m² | - |
| 1778091982 | 17.78° C | 44% | 1012.2 hPa | 0 mm | - | 1238 W/m² | - |
| 1778091683 | 17.22° C | 48% | 1012.2 hPa | 0 mm | - | 1236 W/m² | - |
| 1778091382 | 16.67° C | 47% | 1012.3 hPa | 0 mm | - | 1225 W/m² | - |
| 1778091082 | 16.67° C | 48% | 1012.2 hPa | 0 mm | - | 1201 W/m² | - |
| 1778090782 | 16.11° C | 48% | 1012.4 hPa | 0 mm | - | 1250 W/m² | - |
| 1778090482 | 15.56° C | 49% | 1012.5 hPa | 0 mm | - | 1296 W/m² | - |
| 1778090182 | 15.56° C | 47% | 1012.6 hPa | 0 mm | - | 345 W/m² | - |
| 1778089883 | 15.56° C | 47% | 1012.6 hPa | 0 mm | - | 323 W/m² | - |
| 1778089583 | 15.56° C | 45% | 1012.7 hPa | 0 mm | - | 278 W/m² | - |
| 1778089283 | 15.56° C | 44% | 1012.8 hPa | 0 mm | - | 501 W/m² | - |
| 1778088982 | 15.56° C | 48% | 1012.9 hPa | 0 mm | - | 418 W/m² | - |
| 1778088682 | 15.56° C | 48% | 1013.1 hPa | 0 mm | - | 485 W/m² | - |
| 1778088383 | 15.56° C | 45% | 1013.1 hPa | 0 mm | - | 1144 W/m² | - |
| 1778088082 | 15.56° C | 45% | 1013.2 hPa | 0 mm | - | 1034 W/m² | - |
| 1778087782 | 15.56° C | 49% | 1013.2 hPa | 0 mm | - | 1005 W/m² | - |
| 1778087482 | 15° C | 55% | 1013.3 hPa | 0 mm | - | 1195 W/m² | - |
| 1778087182 | 15° C | 49% | 1013.3 hPa | 0 mm | - | 1262 W/m² | - |
| 1778086883 | 15° C | 48% | 1013.4 hPa | 0 mm | - | 497 W/m² | - |
| 1778086582 | 14.44° C | 47% | 1013.4 hPa | 0 mm | - | 497 W/m² | - |
* Rain latest hour (hover to see other rain measurements)
** Current wind speed in m/s (hover to see current wind gust speed)